createdAt,value
2022-08-30T00:00:40.815Z,98257.00
2022-08-30T00:03:12.345Z,98248.47
2022-08-30T00:05:40.583Z,98250.53
2022-08-30T00:08:08.834Z,98260.16
2022-08-30T00:10:36.817Z,98247.28
2022-08-30T00:13:06.617Z,98259.88
2022-08-30T00:15:35.298Z,98249.16
2022-08-30T00:18:03.214Z,98250.41
2022-08-30T00:20:34.806Z,98243.03
2022-08-30T00:23:03.589Z,98243.44
2022-08-30T00:25:31.782Z,98236.56
2022-08-30T00:27:59.667Z,98250.13
2022-08-30T00:30:27.882Z,98251.03
2022-08-30T00:32:55.725Z,98249.22
2022-08-30T00:35:24.231Z,98248.41
2022-08-30T00:37:53.587Z,98244.06
2022-08-30T00:40:27.371Z,98251.66
2022-08-30T00:42:59.250Z,98244.47
2022-08-30T00:45:30.790Z,98254.59
2022-08-30T00:47:58.882Z,98250.94
2022-08-30T00:50:30.209Z,98254.59
2022-08-30T00:53:02.021Z,98255.28
2022-08-30T00:55:30.850Z,98249.63
2022-08-30T00:58:02.333Z,98252.34
2022-08-30T01:00:32.317Z,98256.19
2022-08-30T01:03:00.325Z,98254.47
2022-08-30T01:05:28.998Z,98253.69
2022-08-30T01:07:57.361Z,98248.22
2022-08-30T01:10:26.632Z,98253.16
2022-08-30T01:12:54.534Z,98249.94
2022-08-30T01:15:22.614Z,98257.22
2022-08-30T01:17:51.097Z,98261.97
2022-08-30T01:20:22.817Z,98266.81
2022-08-30T01:23:13.536Z,98256.50
2022-08-30T01:25:43.345Z,98269.97
2022-08-30T01:28:13.474Z,98266.91
2022-08-30T01:30:43.175Z,98264.19
2022-08-30T01:33:12.875Z,98261.75
2022-08-30T01:35:53.895Z,98263.19
2022-08-30T01:38:25.475Z,98251.44
2022-08-30T01:40:59.319Z,98255.28
2022-08-30T01:43:27.713Z,98256.09
2022-08-30T01:45:55.717Z,98257.72
2022-08-30T01:48:30.945Z,98257.56
2022-08-30T01:50:59.824Z,98261.81
2022-08-30T01:53:29.551Z,98252.31
2022-08-30T01:55:57.616Z,98267.88
2022-08-30T01:58:25.704Z,98258.41
2022-08-30T02:00:53.628Z,98256.88
2022-08-30T02:03:21.662Z,98257.16
2022-08-30T02:05:49.876Z,98270.59
2022-08-30T02:08:18.070Z,98262.22
2022-08-30T02:10:47.426Z,98265.09
2022-08-30T02:13:15.730Z,98260.94
2022-08-30T02:15:43.757Z,98261.78
2022-08-30T02:18:11.874Z,98264.44
2022-08-30T02:20:40.919Z,98264.00
2022-08-30T02:23:08.881Z,98254.72
2022-08-30T02:25:36.725Z,98258.84
2022-08-30T02:28:06.501Z,98251.25
2022-08-30T02:30:34.613Z,98251.94
2022-08-30T02:33:02.676Z,98248.16
2022-08-30T02:35:31.209Z,98244.78
2022-08-30T02:37:59.145Z,98252.66
2022-08-30T02:40:27.078Z,98243.09
2022-08-30T02:42:58.772Z,98243.38
2022-08-30T02:45:28.941Z,98234.09
2022-08-30T02:47:57.014Z,98236.53
2022-08-30T02:50:25.729Z,98239.47
2022-08-30T02:52:54.450Z,98238.34
2022-08-30T02:55:24.213Z,98241.38
2022-08-30T02:57:52.228Z,98237.56
2022-08-30T03:00:22.196Z,98237.34
2022-08-30T03:02:51.450Z,98232.69
2022-08-30T03:05:19.872Z,98240.88
2022-08-30T03:07:48.583Z,98242.34
2022-08-30T03:10:17.521Z,98242.34
2022-08-30T03:12:47.950Z,98241.09
2022-08-30T03:15:16.687Z,98240.81
2022-08-30T03:17:44.557Z,98234.09
2022-08-30T03:20:14.286Z,98231.22
2022-08-30T03:22:42.285Z,98224.44
2022-08-30T03:25:10.999Z,98218.41
2022-08-30T03:27:38.896Z,98219.16
2022-08-30T03:30:08.710Z,98224.53
2022-08-30T03:32:37.095Z,98219.00
2022-08-30T03:35:05.969Z,98216.50
2022-08-30T03:37:35.385Z,98215.03
2022-08-30T03:40:04.435Z,98215.31
2022-08-30T03:42:34.199Z,98218.03
2022-08-30T03:45:03.108Z,98223.19
2022-08-30T03:47:30.990Z,98223.19
2022-08-30T03:49:58.881Z,98219.44
2022-08-30T03:52:27.974Z,98226.28
2022-08-30T03:54:57.530Z,98221.06
2022-08-30T03:57:25.780Z,98214.28
2022-08-30T03:59:53.717Z,98211.84
2022-08-30T04:02:22.131Z,98214.59
2022-08-30T04:04:51.051Z,98218.41
2022-08-30T04:07:19.362Z,98225.78
2022-08-30T04:09:47.418Z,98220.63
2022-08-30T04:12:18.409Z,98231.81
2022-08-30T04:14:51.055Z,98227.19
2022-08-30T04:17:18.946Z,98231.06
2022-08-30T04:19:46.894Z,98228.66
2022-08-30T04:22:14.717Z,98229.00
2022-08-30T04:24:42.718Z,98228.56
2022-08-30T04:27:11.124Z,98229.16
2022-08-30T04:29:40.505Z,98227.81
2022-08-30T04:32:08.652Z,98236.56
2022-08-30T04:34:36.971Z,98236.28
2022-08-30T04:37:04.929Z,98227.00
2022-08-30T04:39:33.291Z,98225.09
2022-08-30T04:42:01.494Z,98238.78
2022-08-30T04:44:29.496Z,98233.91
2022-08-30T04:46:59.053Z,98226.50
2022-08-30T04:49:27.007Z,98231.56
2022-08-30T04:51:55.814Z,98234.91
2022-08-30T04:54:24.059Z,98238.75
2022-08-30T04:56:51.910Z,98238.22
2022-08-30T04:59:19.752Z,98238.78
2022-08-30T05:01:48.300Z,98241.16
2022-08-30T05:04:17.661Z,98248.03
2022-08-30T05:06:45.571Z,98242.31
2022-08-30T05:09:13.492Z,98253.47
2022-08-30T05:11:43.280Z,98259.97
2022-08-30T05:14:11.798Z,98252.78
2022-08-30T05:16:40.168Z,98258.72
2022-08-30T05:19:08.429Z,98255.88
2022-08-30T05:21:40.720Z,98265.63
2022-08-30T05:24:09.423Z,98275.34
2022-08-30T05:26:39.189Z,98272.88
2022-08-30T05:29:07.229Z,98269.84
2022-08-30T05:31:37.485Z,98277.34
2022-08-30T05:34:08.386Z,98280.22
2022-08-30T05:36:40.680Z,98292.22
2022-08-30T05:39:10.657Z,98283.84
2022-08-30T05:41:39.832Z,98286.53
2022-08-30T05:44:09.973Z,98288.34
2022-08-30T05:46:39.858Z,98291.03
2022-08-30T05:49:11.120Z,98287.44
2022-08-30T05:51:43.575Z,98283.19
2022-08-30T05:54:12.329Z,98285.09
2022-08-30T05:56:41.619Z,98281.81
2022-08-30T05:59:10.387Z,98278.44
2022-08-30T06:01:41.222Z,98282.41
2022-08-30T06:04:12.014Z,98279.88
2022-08-30T06:06:43.565Z,98271.09
2022-08-30T06:09:13.429Z,98270.97
2022-08-30T06:11:43.773Z,98268.84
2022-08-30T06:14:12.031Z,98272.91
2022-08-30T06:16:41.318Z,98272.25
2022-08-30T06:19:11.243Z,98266.13
2022-08-30T06:21:41.974Z,98270.63
2022-08-30T06:24:11.854Z,98276.81
2022-08-30T06:26:42.062Z,98276.75
2022-08-30T06:29:10.987Z,98280.97
2022-08-30T06:31:39.633Z,98289.34
2022-08-30T06:34:08.299Z,98276.16
2022-08-30T06:36:36.764Z,98274.97
2022-08-30T06:39:06.987Z,98274.53
2022-08-30T06:41:37.001Z,98273.56
2022-08-30T06:44:06.562Z,98269.84
2022-08-30T06:46:36.907Z,98272.00
2022-08-30T06:49:06.343Z,98270.91
2022-08-30T06:51:36.195Z,98266.56
2022-08-30T06:54:10.641Z,98257.63
2022-08-30T06:56:48.724Z,98262.56
2022-08-30T06:59:25.814Z,98266.63
2022-08-30T07:01:55.367Z,98259.84
2022-08-30T07:04:23.612Z,98261.31
2022-08-30T07:06:51.881Z,98272.72
2022-08-30T07:09:22.864Z,98266.44
2022-08-30T07:11:52.020Z,98267.81
2022-08-30T07:14:20.154Z,98271.00
2022-08-30T07:16:51.066Z,98270.91
2022-08-30T07:19:20.572Z,98262.16
2022-08-30T07:21:51.038Z,98263.25
2022-08-30T07:24:19.466Z,98262.94
2022-08-30T07:26:52.328Z,98257.19
2022-08-30T07:29:21.452Z,98268.34
2022-08-30T07:31:52.565Z,98259.00
2022-08-30T07:34:22.437Z,98266.66
2022-08-30T07:36:53.089Z,98271.56
2022-08-30T07:39:21.800Z,98270.13
2022-08-30T07:41:52.197Z,98281.25
2022-08-30T07:44:20.538Z,98276.44
2022-08-30T07:46:51.375Z,98275.31
2022-08-30T07:49:20.132Z,98271.47
2022-08-30T07:51:49.157Z,98273.56
2022-08-30T07:54:17.273Z,98276.41
2022-08-30T07:56:45.458Z,98273.59
2022-08-30T07:59:15.156Z,98281.03
2022-08-30T08:01:43.522Z,98287.16
2022-08-30T08:04:12.390Z,98276.81
2022-08-30T08:06:41.235Z,98272.91
2022-08-30T08:09:11.263Z,98272.78
2022-08-30T08:11:40.769Z,98276.59
2022-08-30T08:14:09.247Z,98270.50
2022-08-30T08:16:39.368Z,98274.22
2022-08-30T08:19:09.441Z,98274.31
2022-08-30T08:21:38.598Z,98269.63
2022-08-30T08:24:06.855Z,98273.34
2022-08-30T08:26:35.799Z,98271.78
2022-08-30T08:29:04.071Z,98271.81
2022-08-30T08:31:33.398Z,98262.75
2022-08-30T08:34:06.766Z,98272.69
2022-08-30T08:36:37.293Z,98272.59
2022-08-30T08:39:12.329Z,98274.41
2022-08-30T08:41:52.445Z,98268.66
2022-08-30T08:44:34.287Z,98266.91
2022-08-30T08:47:23.068Z,98267.16
2022-08-30T08:50:04.597Z,98264.84
2022-08-30T08:53:01.087Z,98256.53
2022-08-30T08:55:30.645Z,98258.69
2022-08-30T08:57:59.360Z,98260.69
2022-08-30T09:00:27.555Z,98250.31
2022-08-30T09:02:59.897Z,98260.75
2022-08-30T09:05:36.780Z,98254.28
2022-08-30T09:08:11.012Z,98245.91
2022-08-30T09:10:50.759Z,98259.38
2022-08-30T09:13:30.428Z,98244.50
2022-08-30T09:16:06.543Z,98247.81
2022-08-30T09:18:45.542Z,98245.69
2022-08-30T09:21:24.777Z,98246.59
2022-08-30T09:23:59.159Z,98251.88
2022-08-30T09:26:32.048Z,98251.50
2022-08-30T09:32:16.147Z,98243.91
2022-08-30T09:34:44.908Z,98232.50
2022-08-30T09:37:30.299Z,98240.78
2022-08-30T09:40:01.305Z,98238.25
2022-08-30T09:42:31.290Z,98237.06
2022-08-30T09:45:11.918Z,98231.41
2022-08-30T09:47:41.770Z,98231.47
2022-08-30T09:50:12.230Z,98229.50
2022-08-30T09:53:01.737Z,98222.38
2022-08-30T09:55:48.083Z,98219.75
2022-08-30T09:58:25.709Z,98212.75
2022-08-30T10:01:04.845Z,98225.75
2022-08-30T10:03:40.569Z,98217.88
2022-08-30T10:06:22.016Z,98216.41
2022-08-30T10:09:00.851Z,98206.19
2022-08-30T10:11:41.489Z,98214.03
2022-08-30T10:14:45.425Z,98208.03
2022-08-30T10:17:19.462Z,98210.44
2022-08-30T10:20:03.782Z,98197.88
2022-08-30T10:22:35.727Z,98197.03
2022-08-30T10:25:16.156Z,98196.16
2022-08-30T10:27:48.686Z,98185.94
2022-08-30T10:30:18.193Z,98193.09
2022-08-30T10:32:51.069Z,98188.34
2022-08-30T10:35:21.918Z,98174.72
2022-08-30T10:37:52.488Z,98178.84
2022-08-30T10:40:43.838Z,98188.22
2022-08-30T10:43:18.644Z,98174.03
2022-08-30T10:45:48.647Z,98179.59
2022-08-30T10:48:20.599Z,98179.16
2022-08-30T10:50:53.667Z,98176.00
2022-08-30T10:53:27.574Z,98171.16
2022-08-30T10:56:02.603Z,98166.84
2022-08-30T10:58:32.883Z,98171.53
2022-08-30T11:01:12.840Z,98179.66
2022-08-30T11:04:25.015Z,98168.97
2022-08-30T11:06:59.664Z,98169.19
2022-08-30T11:09:42.719Z,98172.00
2022-08-30T11:12:26.608Z,98169.38
2022-08-30T11:14:55.260Z,98157.53
2022-08-30T11:17:27.345Z,98162.25
2022-08-30T11:19:59.782Z,98149.44
2022-08-30T11:22:30.170Z,98152.97
2022-08-30T11:25:10.224Z,98153.72
2022-08-30T11:27:51.465Z,98156.16
2022-08-30T11:30:51.343Z,98156.34
2022-08-30T11:33:47.719Z,98153.72
2022-08-30T11:36:49.298Z,98149.81
2022-08-30T11:39:51.088Z,98154.00
2022-08-30T11:45:45.873Z,98159.00
2022-08-30T11:48:53.932Z,98156.16
2022-08-30T11:55:02.646Z,98161.41
2022-08-30T11:57:33.260Z,98158.25
2022-08-30T12:00:10.329Z,98157.84
2022-08-30T12:02:47.333Z,98152.16
2022-08-30T12:06:01.141Z,98148.41
2022-08-30T12:08:59.607Z,98150.94
2022-08-30T12:12:04.619Z,98143.16
2022-08-30T12:14:49.010Z,98144.56
2022-08-30T12:17:43.399Z,98141.00
2022-08-30T12:20:29.111Z,98140.50
2022-08-30T12:22:57.994Z,98143.34
2022-08-30T12:25:32.860Z,98146.13
2022-08-30T12:28:16.974Z,98145.38
2022-08-30T12:30:46.727Z,98138.53
2022-08-30T12:33:18.183Z,98147.59
2022-08-30T12:35:48.605Z,98139.72
2022-08-30T12:38:27.462Z,98142.16
2022-08-30T12:41:01.505Z,98143.22
2022-08-30T12:43:33.161Z,98145.06
2022-08-30T12:46:11.666Z,98133.13
2022-08-30T12:48:41.147Z,98131.56
2022-08-30T12:51:37.896Z,98129.03
2022-08-30T12:54:09.786Z,98132.25
2022-08-30T12:57:19.072Z,98125.91
2022-08-30T12:59:58.517Z,98117.41
2022-08-30T13:02:29.244Z,98125.91
2022-08-30T13:04:57.843Z,98119.56
2022-08-30T13:07:30.492Z,98112.88
2022-08-30T13:10:07.304Z,98113.75
2022-08-30T13:12:38.336Z,98107.75
2022-08-30T13:15:21.829Z,98102.56
2022-08-30T13:17:49.779Z,98104.34
2022-08-30T13:20:26.038Z,98103.34
2022-08-30T13:23:07.155Z,98095.84
2022-08-30T13:25:35.629Z,98091.91
2022-08-30T13:28:05.223Z,98083.38
2022-08-30T13:30:34.189Z,98081.66
2022-08-30T13:33:02.493Z,98082.31
2022-08-30T13:35:31.243Z,98079.34
2022-08-30T13:38:01.405Z,98078.44
2022-08-30T13:40:30.811Z,98071.38
2022-08-30T13:42:58.954Z,98072.28
2022-08-30T13:45:42.899Z,98066.56
2022-08-30T13:48:11.904Z,98067.50
2022-08-30T13:50:39.909Z,98068.75
2022-08-30T13:53:09.222Z,98067.31
2022-08-30T13:55:39.020Z,98053.06
2022-08-30T13:58:08.617Z,98059.13
2022-08-30T14:00:38.102Z,98052.50
2022-08-30T14:03:06.427Z,98056.84
2022-08-30T14:06:04.935Z,98055.13
2022-08-30T14:08:45.581Z,98048.22
2022-08-30T14:11:19.433Z,98045.91
2022-08-30T14:16:45.145Z,98048.94
2022-08-30T14:19:15.680Z,98043.63
2022-08-30T14:21:49.114Z,98041.31
2022-08-30T14:24:30.409Z,98035.13
2022-08-30T14:26:59.871Z,98032.13
2022-08-30T14:29:30.139Z,98038.75
2022-08-30T14:32:00.322Z,98030.22
2022-08-30T14:34:34.437Z,98024.50
2022-08-30T14:37:07.080Z,98028.84
2022-08-30T14:39:39.121Z,98024.41
2022-08-30T14:44:56.479Z,98016.50
2022-08-30T14:47:29.560Z,98020.47
2022-08-30T14:50:01.047Z,98019.97
2022-08-30T14:52:29.634Z,98024.94
2022-08-30T14:55:05.159Z,98027.19
2022-08-30T14:57:38.702Z,98021.31
2022-08-30T15:00:17.539Z,98011.06
2022-08-30T15:02:48.225Z,98017.00
2022-08-30T15:05:18.966Z,98022.50
2022-08-30T15:07:53.127Z,98016.81
2022-08-30T15:10:25.184Z,98011.28
2022-08-30T15:13:04.902Z,98019.31
2022-08-30T15:15:42.400Z,98022.03
2022-08-30T15:18:10.499Z,98008.81
2022-08-30T15:20:40.823Z,98017.63
2022-08-30T15:23:08.989Z,98001.59
2022-08-30T15:25:37.400Z,97999.25
2022-08-30T15:28:11.516Z,98008.34
2022-08-30T15:30:41.486Z,97997.31
2022-08-30T15:33:10.878Z,98000.47
2022-08-30T15:35:42.005Z,97998.44
2022-08-30T15:38:10.459Z,98006.19
2022-08-30T15:40:40.622Z,97996.75
2022-08-30T15:43:08.758Z,97992.53
2022-08-30T15:45:38.684Z,97995.06
2022-08-30T15:48:06.690Z,97991.53
2022-08-30T15:50:35.821Z,97983.47
2022-08-30T15:53:05.097Z,97983.84
2022-08-30T15:55:35.440Z,97990.28
2022-08-30T15:58:03.976Z,97988.63
2022-08-30T16:00:33.138Z,97980.25
2022-08-30T16:03:02.869Z,97981.06
2022-08-30T16:05:31.199Z,97994.94
2022-08-30T16:07:59.563Z,97984.81
2022-08-30T16:10:27.428Z,97985.50
2022-08-30T16:13:02.948Z,97984.59
2022-08-30T16:15:32.065Z,97984.34
2022-08-30T16:18:00.041Z,97980.22
2022-08-30T16:20:29.472Z,97976.16
2022-08-30T16:22:57.465Z,97981.16
2022-08-30T16:25:25.716Z,97979.19
2022-08-30T16:28:09.516Z,97978.44
2022-08-30T16:30:37.550Z,97972.41
2022-08-30T16:33:06.039Z,97972.66
2022-08-30T16:35:35.454Z,97972.47
2022-08-30T16:38:03.461Z,97980.72
2022-08-30T16:40:31.712Z,97971.97
2022-08-30T16:42:59.718Z,97965.94
2022-08-30T16:45:31.332Z,97969.81
2022-08-30T16:48:02.307Z,97963.28
2022-08-30T16:50:30.166Z,97970.69
2022-08-30T16:53:00.241Z,97961.88
2022-08-30T16:55:28.990Z,97964.88
2022-08-30T16:57:56.952Z,97966.22
2022-08-30T17:00:25.098Z,97968.84
2022-08-30T17:02:56.390Z,97967.84
2022-08-30T17:05:24.466Z,97962.81
2022-08-30T17:07:52.414Z,97967.41
2022-08-30T17:10:23.336Z,97974.31
2022-08-30T17:12:54.219Z,97977.59
2022-08-30T17:15:22.167Z,97966.38
2022-08-30T17:17:50.317Z,97982.44
2022-08-30T17:20:21.097Z,97979.88
2022-08-30T17:22:49.142Z,97979.28
2022-08-30T17:25:17.043Z,97983.56
2022-08-30T17:27:46.356Z,97979.31
2022-08-30T17:30:14.458Z,97990.28
2022-08-30T17:32:42.383Z,97989.97
2022-08-30T17:35:10.564Z,98000.88
2022-08-30T17:37:40.342Z,97999.13
2022-08-30T17:40:14.331Z,98009.72
2022-08-30T17:42:44.039Z,98004.72
2022-08-30T17:45:16.178Z,98013.97
2022-08-30T17:47:45.028Z,98016.91
2022-08-30T17:50:14.132Z,98010.41
2022-08-30T17:52:42.317Z,98023.16
2022-08-30T17:55:11.556Z,98016.41
2022-08-30T17:57:44.354Z,98028.84
2022-08-30T18:00:15.653Z,98032.56
2022-08-30T18:02:44.050Z,98028.44
2022-08-30T18:05:12.156Z,98036.47
2022-08-30T18:07:40.722Z,98037.75
2022-08-30T18:10:09.467Z,98031.34
2022-08-30T18:12:38.196Z,98039.50
2022-08-30T18:15:12.588Z,98036.75
2022-08-30T18:17:47.664Z,98035.03
2022-08-30T18:20:16.146Z,98037.22
2022-08-30T18:22:44.061Z,98034.72
2022-08-30T18:25:14.901Z,98036.91
2022-08-30T18:27:45.815Z,98032.53
2022-08-30T18:30:31.161Z,98032.88
2022-08-30T18:33:02.983Z,98035.53
2022-08-30T18:35:34.574Z,98037.25
2022-08-30T18:38:04.724Z,98044.25
2022-08-30T18:40:32.691Z,98045.56
2022-08-30T18:43:07.935Z,98040.50
2022-08-30T18:45:36.253Z,98046.13
2022-08-30T18:48:06.586Z,98051.19
2022-08-30T18:50:34.718Z,98064.06
2022-08-30T18:53:03.072Z,98045.69
2022-08-30T18:55:31.020Z,98054.94
2022-08-30T18:57:59.126Z,98060.22
2022-08-30T19:00:29.968Z,98060.78
2022-08-30T19:02:57.799Z,98063.41
2022-08-30T19:05:27.857Z,98063.97
2022-08-30T19:07:56.358Z,98074.06
2022-08-30T19:10:26.799Z,98068.31
2022-08-30T19:12:55.990Z,98072.06
2022-08-30T19:15:24.142Z,98072.31
2022-08-30T19:17:52.031Z,98078.38
2022-08-30T19:20:24.748Z,98083.28
2022-08-30T19:23:09.310Z,98087.53
2022-08-30T19:25:38.034Z,98078.81
2022-08-30T19:28:06.612Z,98079.59
2022-08-30T19:30:41.053Z,98086.25
2022-08-30T19:33:13.656Z,98085.63
2022-08-30T19:35:51.432Z,98076.91
2022-08-30T19:38:21.220Z,98086.13
2022-08-30T19:40:53.987Z,98079.81
2022-08-30T19:43:22.694Z,98083.22
2022-08-30T19:45:54.783Z,98083.50
2022-08-30T19:48:23.236Z,98085.09
2022-08-30T19:50:57.435Z,98081.28
2022-08-30T19:53:27.768Z,98084.59
2022-08-30T19:55:55.583Z,98082.63
2022-08-30T19:58:23.591Z,98079.28
2022-08-30T20:03:39.931Z,98080.34
2022-08-30T20:06:08.961Z,98088.59
2022-08-30T20:08:38.697Z,98072.09
2022-08-30T20:11:07.659Z,98087.94
2022-08-30T20:13:38.980Z,98079.00
2022-08-30T20:16:07.553Z,98086.13
2022-08-30T20:18:37.184Z,98073.72
2022-08-30T20:21:05.479Z,98082.78
2022-08-30T20:23:43.254Z,98085.38
2022-08-30T20:26:12.321Z,98080.44
2022-08-30T20:28:40.861Z,98088.00
2022-08-30T20:31:11.215Z,98084.97
2022-08-30T20:33:41.097Z,98082.44
2022-08-30T20:36:11.320Z,98089.22
2022-08-30T20:38:40.166Z,98084.38
2022-08-30T20:41:13.053Z,98084.28
2022-08-30T20:43:41.266Z,98081.72
2022-08-30T20:46:10.681Z,98076.22
2022-08-30T20:48:39.326Z,98075.94
2022-08-30T20:51:09.441Z,98072.59
2022-08-30T20:53:37.446Z,98076.00
2022-08-30T20:56:05.730Z,98068.41
2022-08-30T20:58:35.006Z,98070.22
2022-08-30T21:01:02.997Z,98070.06
2022-08-30T21:03:32.703Z,98073.28
2022-08-30T21:06:00.884Z,98072.81
2022-08-30T21:08:29.110Z,98068.31
2022-08-30T21:10:56.987Z,98067.03
2022-08-30T21:13:25.319Z,98071.25
2022-08-30T21:16:00.300Z,98069.16
2022-08-30T21:18:33.041Z,98076.63
2022-08-30T21:21:01.328Z,98073.53
2022-08-30T21:23:29.406Z,98070.16
2022-08-30T21:26:01.257Z,98077.94
2022-08-30T21:28:29.325Z,98077.94
2022-08-30T21:31:07.004Z,98074.38
2022-08-30T21:33:35.250Z,98075.19
2022-08-30T21:36:20.718Z,98071.63
2022-08-30T21:38:48.890Z,98066.47
2022-08-30T21:41:17.440Z,98077.13
2022-08-30T21:43:47.444Z,98076.66
2022-08-30T21:46:17.920Z,98074.25
2022-08-30T21:48:46.697Z,98074.56
2022-08-30T21:51:14.848Z,98076.50
2022-08-30T21:53:42.849Z,98089.59
2022-08-30T21:56:13.517Z,98087.03
2022-08-30T21:58:45.498Z,98090.91
2022-08-30T22:01:17.508Z,98089.78
2022-08-30T22:03:46.778Z,98093.00
2022-08-30T22:06:15.698Z,98095.59
2022-08-30T22:08:45.683Z,98092.03
2022-08-30T22:11:16.861Z,98093.84
2022-08-30T22:13:46.370Z,98087.06
2022-08-30T22:16:18.180Z,98090.94
2022-08-30T22:18:46.570Z,98098.59
2022-08-30T22:21:16.418Z,98095.38
2022-08-30T22:23:45.079Z,98098.78
2022-08-30T22:26:14.261Z,98093.94
2022-08-30T22:28:42.378Z,98101.22
2022-08-30T22:31:12.885Z,98108.19
2022-08-30T22:33:43.056Z,98105.75
2022-08-30T22:36:13.868Z,98100.13
2022-08-30T22:38:42.536Z,98101.06
2022-08-30T22:41:11.982Z,98101.88
2022-08-30T22:43:40.325Z,98105.75
2022-08-30T22:46:08.472Z,98102.22
2022-08-30T22:48:37.358Z,98101.72
2022-08-30T22:51:07.109Z,98105.47
2022-08-30T22:53:35.479Z,98104.94
2022-08-30T22:56:09.642Z,98112.84
2022-08-30T22:58:37.923Z,98107.41
2022-08-30T23:01:07.013Z,98112.56
2022-08-30T23:03:35.628Z,98115.47
2022-08-30T23:06:03.960Z,98112.22
2022-08-30T23:08:33.262Z,98108.34
2022-08-30T23:11:01.266Z,98099.00
2022-08-30T23:13:29.151Z,98106.59
2022-08-30T23:15:57.400Z,98113.22
2022-08-30T23:18:25.320Z,98110.19
2022-08-30T23:20:53.582Z,98117.75
2022-08-30T23:23:38.743Z,98118.25
2022-08-30T23:26:25.773Z,98111.66
2022-08-30T23:29:11.046Z,98111.16
2022-08-30T23:31:56.387Z,98106.66
2022-08-30T23:34:41.858Z,98110.69
2022-08-30T23:37:27.091Z,98107.19
2022-08-30T23:40:12.387Z,98111.38
2022-08-30T23:43:00.967Z,98107.81
2022-08-30T23:45:46.651Z,98108.47
2022-08-30T23:48:31.852Z,98095.09
2022-08-30T23:51:21.822Z,98095.88
2022-08-30T23:54:07.945Z,98102.34
2022-08-30T23:56:53.370Z,98098.00
2022-08-30T23:59:40.158Z,98094.94
